sensor_id;sensor_type;location;lat;lon;timestamp;pressure;altitude;pressure_sealevel;temperature;humidity
16738;BME280;17906;47.684;10.806;2022-07-06T00:01:11;93850.31;;;11.98;90.61
16738;BME280;17906;47.684;10.806;2022-07-06T00:03:38;93840.03;;;12.00;89.42
16738;BME280;17906;47.684;10.806;2022-07-06T00:06:04;93851.34;;;12.08;89.34
16738;BME280;17906;47.684;10.806;2022-07-06T00:08:31;93852.28;;;12.02;91.69
16738;BME280;17906;47.684;10.806;2022-07-06T00:10:58;93858.41;;;12.09;91.84
16738;BME280;17906;47.684;10.806;2022-07-06T00:13:26;93859.00;;;12.11;92.55
16738;BME280;17906;47.684;10.806;2022-07-06T00:15:53;93862.69;;;12.05;92.54
16738;BME280;17906;47.684;10.806;2022-07-06T00:18:20;93860.28;;;11.92;93.71
16738;BME280;17906;47.684;10.806;2022-07-06T00:20:46;93863.44;;;11.89;94.63
16738;BME280;17906;47.684;10.806;2022-07-06T00:23:13;93876.00;;;11.78;95.72
16738;BME280;17906;47.684;10.806;2022-07-06T00:25:40;93882.25;;;11.79;96.67
16738;BME280;17906;47.684;10.806;2022-07-06T00:28:06;93885.69;;;11.74;96.13
16738;BME280;17906;47.684;10.806;2022-07-06T00:30:34;93892.56;;;11.65;95.70
16738;BME280;17906;47.684;10.806;2022-07-06T00:33:01;93877.78;;;11.73;94.36
16738;BME280;17906;47.684;10.806;2022-07-06T00:35:27;93872.47;;;11.78;92.40
16738;BME280;17906;47.684;10.806;2022-07-06T00:37:54;93877.97;;;11.95;92.37
16738;BME280;17906;47.684;10.806;2022-07-06T00:40:21;93870.72;;;12.00;92.33
16738;BME280;17906;47.684;10.806;2022-07-06T00:42:48;93862.78;;;12.10;92.33
16738;BME280;17906;47.684;10.806;2022-07-06T00:45:16;93852.97;;;12.09;90.06
16738;BME280;17906;47.684;10.806;2022-07-06T00:47:45;93853.81;;;12.10;88.94
16738;BME280;17906;47.684;10.806;2022-07-06T00:50:13;93849.19;;;12.10;88.83
16738;BME280;17906;47.684;10.806;2022-07-06T00:52:41;93849.69;;;12.07;87.67
16738;BME280;17906;47.684;10.806;2022-07-06T00:55:08;93839.97;;;12.11;88.30
16738;BME280;17906;47.684;10.806;2022-07-06T00:57:35;93831.81;;;12.11;88.43
16738;BME280;17906;47.684;10.806;2022-07-06T01:00:03;93827.59;;;12.15;89.62
16738;BME280;17906;47.684;10.806;2022-07-06T01:02:30;93821.91;;;12.17;89.98
16738;BME280;17906;47.684;10.806;2022-07-06T01:04:58;93823.41;;;12.25;88.79
16738;BME280;17906;47.684;10.806;2022-07-06T01:07:25;93809.22;;;12.23;89.76
16738;BME280;17906;47.684;10.806;2022-07-06T01:09:52;93815.72;;;12.22;90.07
16738;BME280;17906;47.684;10.806;2022-07-06T01:12:18;93807.25;;;12.18;89.88
16738;BME280;17906;47.684;10.806;2022-07-06T01:14:45;93804.88;;;12.10;89.98
16738;BME280;17906;47.684;10.806;2022-07-06T01:17:12;93811.78;;;12.01;89.56
16738;BME280;17906;47.684;10.806;2022-07-06T01:19:39;93808.72;;;11.97;89.96
16738;BME280;17906;47.684;10.806;2022-07-06T01:22:08;93811.53;;;12.02;90.49
16738;BME280;17906;47.684;10.806;2022-07-06T01:24:35;93812.53;;;11.96;90.13
16738;BME280;17906;47.684;10.806;2022-07-06T01:27:02;93804.38;;;11.96;90.08
16738;BME280;17906;47.684;10.806;2022-07-06T01:29:29;93792.09;;;11.94;89.61
16738;BME280;17906;47.684;10.806;2022-07-06T01:31:56;93790.25;;;11.82;89.97
16738;BME280;17906;47.684;10.806;2022-07-06T01:34:23;93784.13;;;11.75;89.47
16738;BME280;17906;47.684;10.806;2022-07-06T01:36:49;93779.91;;;11.68;90.07
16738;BME280;17906;47.684;10.806;2022-07-06T01:39:17;93777.91;;;11.63;89.82
16738;BME280;17906;47.684;10.806;2022-07-06T01:41:44;93780.53;;;11.58;89.59
16738;BME280;17906;47.684;10.806;2022-07-06T01:44:11;93781.50;;;11.52;89.59
16738;BME280;17906;47.684;10.806;2022-07-06T01:46:38;93779.50;;;11.47;89.52
16738;BME280;17906;47.684;10.806;2022-07-06T01:49:05;93786.22;;;11.45;89.92
16738;BME280;17906;47.684;10.806;2022-07-06T01:51:32;93778.22;;;11.50;89.58
16738;BME280;17906;47.684;10.806;2022-07-06T01:53:59;93781.56;;;11.28;89.74
16738;BME280;17906;47.684;10.806;2022-07-06T01:56:26;93787.59;;;11.19;90.30
16738;BME280;17906;47.684;10.806;2022-07-06T01:58:53;93793.72;;;11.14;90.24
16738;BME280;17906;47.684;10.806;2022-07-06T02:01:20;93784.31;;;11.17;90.23
16738;BME280;17906;47.684;10.806;2022-07-06T02:03:47;93781.25;;;11.01;90.58
16738;BME280;17906;47.684;10.806;2022-07-06T02:06:14;93791.00;;;10.79;90.64
16738;BME280;17906;47.684;10.806;2022-07-06T02:08:41;93787.81;;;10.70;90.37
16738;BME280;17906;47.684;10.806;2022-07-06T02:11:09;93790.44;;;10.77;89.99
16738;BME280;17906;47.684;10.806;2022-07-06T02:13:38;93785.34;;;10.69;90.06
16738;BME280;17906;47.684;10.806;2022-07-06T02:16:04;93780.41;;;10.66;89.72
16738;BME280;17906;47.684;10.806;2022-07-06T02:18:31;93787.81;;;10.70;89.61
16738;BME280;17906;47.684;10.806;2022-07-06T02:20:58;93774.84;;;10.61;90.47
16738;BME280;17906;47.684;10.806;2022-07-06T02:23:24;93778.03;;;10.58;91.49
16738;BME280;17906;47.684;10.806;2022-07-06T02:25:51;93783.47;;;10.58;90.72
16738;BME280;17906;47.684;10.806;2022-07-06T02:28:18;93774.75;;;10.56;91.89
16738;BME280;17906;47.684;10.806;2022-07-06T02:30:46;93776.97;;;10.59;91.79
16738;BME280;17906;47.684;10.806;2022-07-06T02:33:13;93781.94;;;10.62;90.75
16738;BME280;17906;47.684;10.806;2022-07-06T02:35:39;93789.22;;;10.61;90.86
16738;BME280;17906;47.684;10.806;2022-07-06T02:38:08;93788.19;;;10.62;90.50
16738;BME280;17906;47.684;10.806;2022-07-06T02:40:34;93786.19;;;10.58;90.36
16738;BME280;17906;47.684;10.806;2022-07-06T02:43:01;93788.66;;;10.59;91.06
16738;BME280;17906;47.684;10.806;2022-07-06T02:45:28;93787.00;;;10.58;91.58
16738;BME280;17906;47.684;10.806;2022-07-06T02:47:56;93794.19;;;10.41;91.32
16738;BME280;17906;47.684;10.806;2022-07-06T02:50:22;93789.94;;;10.33;92.03
16738;BME280;17906;47.684;10.806;2022-07-06T02:52:49;93795.19;;;10.16;90.66
16738;BME280;17906;47.684;10.806;2022-07-06T02:55:16;93789.09;;;10.21;90.49
16738;BME280;17906;47.684;10.806;2022-07-06T02:57:42;93796.16;;;10.22;90.93
16738;BME280;17906;47.684;10.806;2022-07-06T03:00:10;93797.78;;;10.11;90.83
16738;BME280;17906;47.684;10.806;2022-07-06T03:02:36;93788.09;;;10.04;91.19
16738;BME280;17906;47.684;10.806;2022-07-06T03:05:05;93797.41;;;10.08;91.59
16738;BME280;17906;47.684;10.806;2022-07-06T03:07:32;93801.16;;;10.07;89.99
16738;BME280;17906;47.684;10.806;2022-07-06T03:09:59;93807.00;;;9.92;90.42
16738;BME280;17906;47.684;10.806;2022-07-06T03:12:25;93806.06;;;9.86;91.97
16738;BME280;17906;47.684;10.806;2022-07-06T03:14:52;93796.88;;;9.87;92.49
16738;BME280;17906;47.684;10.806;2022-07-06T03:17:18;93791.22;;;9.89;91.84
16738;BME280;17906;47.684;10.806;2022-07-06T03:19:46;93796.41;;;9.91;91.36
16738;BME280;17906;47.684;10.806;2022-07-06T03:22:14;93797.81;;;9.93;90.93
16738;BME280;17906;47.684;10.806;2022-07-06T03:24:41;93800.66;;;9.86;91.47
16738;BME280;17906;47.684;10.806;2022-07-06T03:27:07;93803.72;;;9.90;91.67
16738;BME280;17906;47.684;10.806;2022-07-06T03:29:34;93805.13;;;9.93;90.85
16738;BME280;17906;47.684;10.806;2022-07-06T03:32:00;93806.19;;;9.92;91.32
16738;BME280;17906;47.684;10.806;2022-07-06T03:34:27;93802.78;;;9.96;91.23
16738;BME280;17906;47.684;10.806;2022-07-06T03:36:54;93809.72;;;9.92;90.87
16738;BME280;17906;47.684;10.806;2022-07-06T03:39:22;93815.22;;;9.85;91.94
16738;BME280;17906;47.684;10.806;2022-07-06T03:41:48;93814.03;;;9.81;92.50
16738;BME280;17906;47.684;10.806;2022-07-06T03:44:15;93822.09;;;9.88;92.32
16738;BME280;17906;47.684;10.806;2022-07-06T03:46:41;93812.66;;;9.91;92.74
16738;BME280;17906;47.684;10.806;2022-07-06T03:49:08;93807.84;;;9.93;92.44
16738;BME280;17906;47.684;10.806;2022-07-06T03:51:34;93813.47;;;9.91;93.17
16738;BME280;17906;47.684;10.806;2022-07-06T03:54:01;93813.41;;;9.68;93.10
16738;BME280;17906;47.684;10.806;2022-07-06T03:56:29;93806.97;;;9.80;91.53
16738;BME280;17906;47.684;10.806;2022-07-06T03:58:59;93807.00;;;9.62;90.72
16738;BME280;17906;47.684;10.806;2022-07-06T04:01:26;93811.75;;;9.67;91.18
16738;BME280;17906;47.684;10.806;2022-07-06T04:03:53;93806.69;;;9.70;91.84
16738;BME280;17906;47.684;10.806;2022-07-06T04:06:20;93809.03;;;9.67;91.33
16738;BME280;17906;47.684;10.806;2022-07-06T04:08:46;93806.09;;;9.68;91.78
16738;BME280;17906;47.684;10.806;2022-07-06T04:11:13;93809.13;;;9.60;91.82
16738;BME280;17906;47.684;10.806;2022-07-06T04:13:41;93811.06;;;9.53;92.48
16738;BME280;17906;47.684;10.806;2022-07-06T04:16:08;93814.00;;;9.51;92.97
16738;BME280;17906;47.684;10.806;2022-07-06T04:18:35;93808.59;;;9.51;93.89
16738;BME280;17906;47.684;10.806;2022-07-06T04:21:02;93815.47;;;9.54;93.80
16738;BME280;17906;47.684;10.806;2022-07-06T04:23:29;93810.31;;;9.46;95.36
16738;BME280;17906;47.684;10.806;2022-07-06T04:25:55;93813.88;;;9.65;94.10
16738;BME280;17906;47.684;10.806;2022-07-06T04:28:22;93815.31;;;9.79;93.78
16738;BME280;17906;47.684;10.806;2022-07-06T04:30:50;93818.53;;;9.87;93.48
16738;BME280;17906;47.684;10.806;2022-07-06T04:33:17;93819.97;;;9.90;93.81
16738;BME280;17906;47.684;10.806;2022-07-06T04:35:43;93818.00;;;9.97;93.81
16738;BME280;17906;47.684;10.806;2022-07-06T04:38:10;93818.28;;;10.07;93.32
16738;BME280;17906;47.684;10.806;2022-07-06T04:40:37;93821.09;;;10.12;93.94
16738;BME280;17906;47.684;10.806;2022-07-06T04:43:04;93815.34;;;10.21;94.33
16738;BME280;17906;47.684;10.806;2022-07-06T04:45:30;93815.00;;;10.29;94.56
16738;BME280;17906;47.684;10.806;2022-07-06T04:47:58;93817.63;;;10.35;94.72
16738;BME280;17906;47.684;10.806;2022-07-06T04:50:25;93818.94;;;10.44;95.32
16738;BME280;17906;47.684;10.806;2022-07-06T04:52:51;93817.97;;;10.51;95.53
16738;BME280;17906;47.684;10.806;2022-07-06T04:55:18;93828.38;;;10.54;95.92
16738;BME280;17906;47.684;10.806;2022-07-06T04:57:45;93822.38;;;10.63;97.19
16738;BME280;17906;47.684;10.806;2022-07-06T05:00:12;93819.31;;;10.71;97.04
16738;BME280;17906;47.684;10.806;2022-07-06T05:02:39;93821.56;;;10.86;97.32
16738;BME280;17906;47.684;10.806;2022-07-06T05:05:07;93833.75;;;10.95;96.67
16738;BME280;17906;47.684;10.806;2022-07-06T05:07:34;93829.25;;;11.01;97.43
16738;BME280;17906;47.684;10.806;2022-07-06T05:10:05;93825.00;;;11.17;96.80
16738;BME280;17906;47.684;10.806;2022-07-06T05:12:32;93831.81;;;11.31;97.12
16738;BME280;17906;47.684;10.806;2022-07-06T05:14:59;93836.16;;;11.44;97.17
16738;BME280;17906;47.684;10.806;2022-07-06T05:17:25;93825.28;;;11.55;97.25
16738;BME280;17906;47.684;10.806;2022-07-06T05:19:52;93830.22;;;11.70;97.08
16738;BME280;17906;47.684;10.806;2022-07-06T05:22:20;93825.22;;;11.79;96.94
16738;BME280;17906;47.684;10.806;2022-07-06T05:24:46;93824.47;;;11.95;96.02
16738;BME280;17906;47.684;10.806;2022-07-06T05:27:13;93827.44;;;12.10;95.85
16738;BME280;17906;47.684;10.806;2022-07-06T05:29:39;93825.88;;;12.26;94.08
16738;BME280;17906;47.684;10.806;2022-07-06T05:32:06;93829.13;;;12.40;94.75
16738;BME280;17906;47.684;10.806;2022-07-06T05:34:33;93832.09;;;12.55;94.75
16738;BME280;17906;47.684;10.806;2022-07-06T05:37:01;93834.72;;;12.67;93.79
16738;BME280;17906;47.684;10.806;2022-07-06T05:39:29;93839.28;;;12.78;92.96
16738;BME280;17906;47.684;10.806;2022-07-06T05:41:56;93840.03;;;12.90;92.43
16738;BME280;17906;47.684;10.806;2022-07-06T05:44:22;93838.63;;;13.04;91.16
16738;BME280;17906;47.684;10.806;2022-07-06T05:46:49;93841.25;;;13.16;91.88
16738;BME280;17906;47.684;10.806;2022-07-06T05:49:16;93847.81;;;13.20;90.49
16738;BME280;17906;47.684;10.806;2022-07-06T05:52:02;93838.94;;;13.25;86.97
16738;BME280;17906;47.684;10.806;2022-07-06T05:54:31;93852.03;;;13.45;85.35
16738;BME280;17906;47.684;10.806;2022-07-06T05:56:57;93853.00;;;13.55;87.83
16738;BME280;17906;47.684;10.806;2022-07-06T05:59:23;93849.09;;;13.68;87.84
16738;BME280;17906;47.684;10.806;2022-07-06T06:01:50;93845.97;;;13.81;86.99
16738;BME280;17906;47.684;10.806;2022-07-06T06:04:17;93846.69;;;13.93;86.87
16738;BME280;17906;47.684;10.806;2022-07-06T06:06:43;93857.06;;;13.97;85.80
16738;BME280;17906;47.684;10.806;2022-07-06T06:09:10;93855.50;;;14.01;86.53
16738;BME280;17906;47.684;10.806;2022-07-06T06:11:38;93847.19;;;14.12;87.11
16738;BME280;17906;47.684;10.806;2022-07-06T06:14:04;93850.03;;;14.22;85.90
16738;BME280;17906;47.684;10.806;2022-07-06T06:16:31;93851.44;;;14.30;82.43
16738;BME280;17906;47.684;10.806;2022-07-06T06:18:57;93849.13;;;14.39;81.33
16738;BME280;17906;47.684;10.806;2022-07-06T06:21:24;93856.28;;;14.45;81.30
16738;BME280;17906;47.684;10.806;2022-07-06T06:23:51;93846.25;;;14.50;80.78
16738;BME280;17906;47.684;10.806;2022-07-06T06:26:17;93850.69;;;14.57;83.17
16738;BME280;17906;47.684;10.806;2022-07-06T06:28:45;93850.97;;;14.60;77.70
16738;BME280;17906;47.684;10.806;2022-07-06T06:31:12;93855.44;;;14.71;79.48
16738;BME280;17906;47.684;10.806;2022-07-06T06:33:39;93852.47;;;14.73;78.96
16738;BME280;17906;47.684;10.806;2022-07-06T06:36:06;93855.00;;;14.85;76.43
16738;BME280;17906;47.684;10.806;2022-07-06T06:38:32;93859.72;;;14.89;76.75
16738;BME280;17906;47.684;10.806;2022-07-06T06:41:00;93857.91;;;15.00;77.87
16738;BME280;17906;47.684;10.806;2022-07-06T06:43:28;93850.06;;;15.08;79.26
16738;BME280;17906;47.684;10.806;2022-07-06T06:45:56;93848.78;;;15.21;75.21
16738;BME280;17906;47.684;10.806;2022-07-06T06:48:22;93849.13;;;15.30;74.27
16738;BME280;17906;47.684;10.806;2022-07-06T06:50:49;93843.88;;;15.23;74.49
16738;BME280;17906;47.684;10.806;2022-07-06T06:53:15;93835.75;;;15.33;75.34
16738;BME280;17906;47.684;10.806;2022-07-06T06:55:43;93842.41;;;15.43;75.29
16738;BME280;17906;47.684;10.806;2022-07-06T06:58:09;93846.34;;;15.62;72.75
16738;BME280;17906;47.684;10.806;2022-07-06T07:00:36;93842.09;;;15.86;76.54
16738;BME280;17906;47.684;10.806;2022-07-06T07:03:04;93846.84;;;16.06;73.56
16738;BME280;17906;47.684;10.806;2022-07-06T07:05:31;93840.59;;;16.16;70.50
16738;BME280;17906;47.684;10.806;2022-07-06T07:07:57;93840.31;;;16.22;71.70
16738;BME280;17906;47.684;10.806;2022-07-06T07:10:24;93836.53;;;16.34;70.81
16738;BME280;17906;47.684;10.806;2022-07-06T07:12:51;93841.25;;;16.53;70.38
16738;BME280;17906;47.684;10.806;2022-07-06T07:15:18;93829.22;;;16.65;71.84
16738;BME280;17906;47.684;10.806;2022-07-06T07:17:45;93842.41;;;16.73;72.90
16738;BME280;17906;47.684;10.806;2022-07-06T07:20:13;93835.28;;;16.77;69.24
16738;BME280;17906;47.684;10.806;2022-07-06T07:22:39;93835.31;;;17.02;66.80
16738;BME280;17906;47.684;10.806;2022-07-06T07:25:07;93842.41;;;17.08;69.96
16738;BME280;17906;47.684;10.806;2022-07-06T07:27:33;93846.25;;;17.18;68.53
16738;BME280;17906;47.684;10.806;2022-07-06T07:30:00;93835.84;;;17.20;70.51
16738;BME280;17906;47.684;10.806;2022-07-06T07:32:26;93846.28;;;17.28;67.87
16738;BME280;17906;47.684;10.806;2022-07-06T07:34:53;93839.69;;;17.44;67.40
16738;BME280;17906;47.684;10.806;2022-07-06T07:37:21;93849.28;;;17.52;71.67
16738;BME280;17906;47.684;10.806;2022-07-06T07:39:47;93844.88;;;17.20;65.98
16738;BME280;17906;47.684;10.806;2022-07-06T07:42:14;93847.34;;;17.17;68.43
16738;BME280;17906;47.684;10.806;2022-07-06T07:44:41;93834.19;;;17.54;65.75
16738;BME280;17906;47.684;10.806;2022-07-06T07:47:07;93835.44;;;18.03;64.86
16738;BME280;17906;47.684;10.806;2022-07-06T07:49:34;93832.31;;;18.30;65.02
16738;BME280;17906;47.684;10.806;2022-07-06T07:52:00;93826.19;;;18.48;67.62
16738;BME280;17906;47.684;10.806;2022-07-06T07:54:28;93831.56;;;18.68;64.76
16738;BME280;17906;47.684;10.806;2022-07-06T07:56:55;93825.50;;;18.76;61.36
16738;BME280;17906;47.684;10.806;2022-07-06T07:59:22;93828.38;;;19.00;62.81
16738;BME280;17906;47.684;10.806;2022-07-06T08:01:48;93828.75;;;19.18;63.37
16738;BME280;17906;47.684;10.806;2022-07-06T08:04:15;93825.19;;;19.17;63.44
16738;BME280;17906;47.684;10.806;2022-07-06T08:06:42;93832.16;;;19.04;61.80
16738;BME280;17906;47.684;10.806;2022-07-06T08:09:08;93826.06;;;19.13;63.89
16738;BME280;17906;47.684;10.806;2022-07-06T08:11:36;93822.38;;;19.56;61.73
16738;BME280;17906;47.684;10.806;2022-07-06T08:14:03;93818.69;;;19.42;64.57
16738;BME280;17906;47.684;10.806;2022-07-06T08:16:30;93823.34;;;19.70;60.85
16738;BME280;17906;47.684;10.806;2022-07-06T08:18:57;93829.19;;;19.93;59.67
16738;BME280;17906;47.684;10.806;2022-07-06T08:21:24;93821.16;;;20.20;61.25
16738;BME280;17906;47.684;10.806;2022-07-06T08:23:51;93827.78;;;20.19;57.48
16738;BME280;17906;47.684;10.806;2022-07-06T08:26:17;93827.41;;;20.26;58.11
16738;BME280;17906;47.684;10.806;2022-07-06T08:28:46;93828.84;;;20.66;58.16
16738;BME280;17906;47.684;10.806;2022-07-06T08:31:12;93822.72;;;20.50;57.15
16738;BME280;17906;47.684;10.806;2022-07-06T08:33:39;93820.03;;;20.21;59.32
16738;BME280;17906;47.684;10.806;2022-07-06T08:36:06;93822.16;;;20.48;57.10
16738;BME280;17906;47.684;10.806;2022-07-06T08:38:32;93827.53;;;20.40;58.88
16738;BME280;17906;47.684;10.806;2022-07-06T08:40:59;93816.91;;;20.52;57.73
16738;BME280;17906;47.684;10.806;2022-07-06T08:43:26;93825.06;;;20.38;56.00
16738;BME280;17906;47.684;10.806;2022-07-06T08:45:54;93829.63;;;20.72;56.34
16738;BME280;17906;47.684;10.806;2022-07-06T08:48:23;93834.28;;;20.90;54.69
16738;BME280;17906;47.684;10.806;2022-07-06T08:50:50;93828.41;;;21.16;53.42
16738;BME280;17906;47.684;10.806;2022-07-06T08:53:18;93819.75;;;21.41;55.07
16738;BME280;17906;47.684;10.806;2022-07-06T08:55:44;93835.25;;;21.18;55.12
16738;BME280;17906;47.684;10.806;2022-07-06T08:58:11;93842.09;;;21.58;52.86
16738;BME280;17906;47.684;10.806;2022-07-06T09:00:39;93840.00;;;21.50;51.60
16738;BME280;17906;47.684;10.806;2022-07-06T09:03:11;93842.50;;;21.79;53.84
16738;BME280;17906;47.684;10.806;2022-07-06T09:05:39;93843.72;;;22.19;53.96
16738;BME280;17906;47.684;10.806;2022-07-06T09:08:06;93832.69;;;22.47;50.64
16738;BME280;17906;47.684;10.806;2022-07-06T09:10:32;93833.00;;;22.04;47.45
16738;BME280;17906;47.684;10.806;2022-07-06T09:13:03;93837.25;;;21.50;50.43
16738;BME280;17906;47.684;10.806;2022-07-06T09:15:31;93847.63;;;21.02;48.68
16738;BME280;17906;47.684;10.806;2022-07-06T09:17:58;93842.84;;;21.26;46.64
16738;BME280;17906;47.684;10.806;2022-07-06T09:20:26;93841.13;;;21.95;44.63
16738;BME280;17906;47.684;10.806;2022-07-06T09:22:57;93839.72;;;22.12;43.73
16738;BME280;17906;47.684;10.806;2022-07-06T09:25:25;93844.78;;;22.37;43.30
16738;BME280;17906;47.684;10.806;2022-07-06T09:27:52;93844.97;;;22.82;44.34
16738;BME280;17906;47.684;10.806;2022-07-06T09:30:20;93838.16;;;22.88;44.76
16738;BME280;17906;47.684;10.806;2022-07-06T09:32:49;93836.84;;;22.99;43.00
16738;BME280;17906;47.684;10.806;2022-07-06T09:35:20;93833.00;;;23.09;42.76
16738;BME280;17906;47.684;10.806;2022-07-06T09:37:59;93838.44;;;23.14;40.85
16738;BME280;17906;47.684;10.806;2022-07-06T09:40:26;93833.63;;;23.42;41.35
16738;BME280;17906;47.684;10.806;2022-07-06T09:43:07;93833.06;;;23.18;39.81
16738;BME280;17906;47.684;10.806;2022-07-06T09:45:34;93834.88;;;23.36;38.66
16738;BME280;17906;47.684;10.806;2022-07-06T09:48:06;93831.69;;;23.65;42.61
16738;BME280;17906;47.684;10.806;2022-07-06T09:50:38;93830.66;;;23.61;42.15
16738;BME280;17906;47.684;10.806;2022-07-06T09:53:06;93826.88;;;23.79;38.35
16738;BME280;17906;47.684;10.806;2022-07-06T09:55:33;93833.75;;;23.59;41.12
16738;BME280;17906;47.684;10.806;2022-07-06T09:57:59;93842.50;;;22.80;40.71
16738;BME280;17906;47.684;10.806;2022-07-06T10:00:26;93838.47;;;23.00;42.78
16738;BME280;17906;47.684;10.806;2022-07-06T10:02:53;93831.38;;;23.44;42.83
16738;BME280;17906;47.684;10.806;2022-07-06T10:05:21;93829.06;;;23.91;42.16
16738;BME280;17906;47.684;10.806;2022-07-06T10:07:56;93834.72;;;23.86;40.67
16738;BME280;17906;47.684;10.806;2022-07-06T10:10:25;93833.13;;;24.16;43.36
16738;BME280;17906;47.684;10.806;2022-07-06T10:12:51;93836.38;;;24.09;43.28
16738;BME280;17906;47.684;10.806;2022-07-06T10:15:21;93832.06;;;24.03;42.52
16738;BME280;17906;47.684;10.806;2022-07-06T10:17:49;93829.44;;;24.29;42.29
16738;BME280;17906;47.684;10.806;2022-07-06T10:20:17;93834.16;;;24.28;39.29
16738;BME280;17906;47.684;10.806;2022-07-06T10:22:44;93832.84;;;23.95;39.18
16738;BME280;17906;47.684;10.806;2022-07-06T10:25:11;93835.47;;;24.22;41.72
16738;BME280;17906;47.684;10.806;2022-07-06T10:27:39;93824.69;;;24.69;40.11
16738;BME280;17906;47.684;10.806;2022-07-06T10:30:07;93829.78;;;24.76;39.37
16738;BME280;17906;47.684;10.806;2022-07-06T10:32:34;93829.09;;;24.70;39.30
16738;BME280;17906;47.684;10.806;2022-07-06T10:35:01;93830.31;;;24.47;37.65
16738;BME280;17906;47.684;10.806;2022-07-06T10:37:28;93835.88;;;24.47;39.85
16738;BME280;17906;47.684;10.806;2022-07-06T10:39:54;93824.13;;;24.50;38.51
16738;BME280;17906;47.684;10.806;2022-07-06T10:42:44;93823.31;;;24.49;40.22
16738;BME280;17906;47.684;10.806;2022-07-06T10:45:13;93810.28;;;24.50;39.07
16738;BME280;17906;47.684;10.806;2022-07-06T10:47:40;93815.91;;;24.27;37.92
16738;BME280;17906;47.684;10.806;2022-07-06T10:50:08;93820.63;;;24.27;38.99
16738;BME280;17906;47.684;10.806;2022-07-06T10:52:48;93818.75;;;24.45;37.59
16738;BME280;17906;47.684;10.806;2022-07-06T10:55:28;93818.47;;;24.15;36.15
16738;BME280;17906;47.684;10.806;2022-07-06T10:57:56;93826.47;;;23.94;35.97
16738;BME280;17906;47.684;10.806;2022-07-06T11:00:23;93821.06;;;24.51;40.69
16738;BME280;17906;47.684;10.806;2022-07-06T11:02:49;93812.66;;;24.74;40.32
16738;BME280;17906;47.684;10.806;2022-07-06T11:05:40;93811.47;;;24.18;37.24
16738;BME280;17906;47.684;10.806;2022-07-06T11:08:09;93819.53;;;23.52;40.18
16738;BME280;17906;47.684;10.806;2022-07-06T11:10:46;93818.81;;;22.88;38.23
16738;BME280;17906;47.684;10.806;2022-07-06T11:13:26;93817.25;;;22.46;37.30
16738;BME280;17906;47.684;10.806;2022-07-06T11:16:00;93815.06;;;22.84;40.59
16738;BME280;17906;47.684;10.806;2022-07-06T11:18:38;93813.72;;;22.68;41.54
16738;BME280;17906;47.684;10.806;2022-07-06T11:21:21;93824.81;;;22.26;38.92
16738;BME280;17906;47.684;10.806;2022-07-06T11:23:49;93826.06;;;21.74;40.21
16738;BME280;17906;47.684;10.806;2022-07-06T11:26:17;93824.47;;;22.01;43.31
16738;BME280;17906;47.684;10.806;2022-07-06T11:28:47;93832.84;;;21.82;43.83
16738;BME280;17906;47.684;10.806;2022-07-06T11:31:16;93818.75;;;21.51;45.29
16738;BME280;17906;47.684;10.806;2022-07-06T11:33:45;93814.88;;;21.52;43.98
16738;BME280;17906;47.684;10.806;2022-07-06T11:36:16;93821.25;;;22.26;41.96
16738;BME280;17906;47.684;10.806;2022-07-06T11:38:44;93816.19;;;22.69;41.57
16738;BME280;17906;47.684;10.806;2022-07-06T11:41:11;93797.84;;;23.09;45.17
16738;BME280;17906;47.684;10.806;2022-07-06T11:43:39;93804.03;;;23.29;43.81
16738;BME280;17906;47.684;10.806;2022-07-06T11:46:19;93808.69;;;23.20;38.85
16738;BME280;17906;47.684;10.806;2022-07-06T11:48:46;93796.56;;;23.52;42.99
16738;BME280;17906;47.684;10.806;2022-07-06T11:51:13;93800.34;;;22.97;40.42
16738;BME280;17906;47.684;10.806;2022-07-06T11:53:43;93809.38;;;22.25;39.65
16738;BME280;17906;47.684;10.806;2022-07-06T11:56:10;93810.84;;;21.90;43.56
16738;BME280;17906;47.684;10.806;2022-07-06T11:58:38;93796.16;;;22.22;42.17
16738;BME280;17906;47.684;10.806;2022-07-06T12:01:05;93797.06;;;22.59;42.56
16738;BME280;17906;47.684;10.806;2022-07-06T12:03:34;93792.75;;;22.53;41.50
16738;BME280;17906;47.684;10.806;2022-07-06T12:06:01;93799.44;;;22.11;42.25
16738;BME280;17906;47.684;10.806;2022-07-06T12:08:28;93798.66;;;21.78;40.45
16738;BME280;17906;47.684;10.806;2022-07-06T12:10:54;93788.19;;;22.07;40.71
16738;BME280;17906;47.684;10.806;2022-07-06T12:13:22;93789.19;;;22.39;42.40
16738;BME280;17906;47.684;10.806;2022-07-06T12:15:49;93787.72;;;22.82;41.60
16738;BME280;17906;47.684;10.806;2022-07-06T12:18:16;93777.63;;;23.00;40.05
16738;BME280;17906;47.684;10.806;2022-07-06T12:20:44;93778.25;;;22.97;38.40
16738;BME280;17906;47.684;10.806;2022-07-06T12:23:10;93771.16;;;23.27;42.06
16738;BME280;17906;47.684;10.806;2022-07-06T12:25:37;93780.41;;;22.87;39.11
16738;BME280;17906;47.684;10.806;2022-07-06T12:28:04;93784.28;;;22.22;40.32
16738;BME280;17906;47.684;10.806;2022-07-06T12:30:31;93780.91;;;21.84;42.07
16738;BME280;17906;47.684;10.806;2022-07-06T12:33:12;93795.22;;;21.39;43.07
16738;BME280;17906;47.684;10.806;2022-07-06T12:35:39;93793.47;;;21.44;43.89
16738;BME280;17906;47.684;10.806;2022-07-06T12:38:07;93790.84;;;21.52;42.86
16738;BME280;17906;47.684;10.806;2022-07-06T12:40:35;93789.25;;;21.65;41.59
16738;BME280;17906;47.684;10.806;2022-07-06T12:43:02;93791.00;;;21.88;43.04
16738;BME280;17906;47.684;10.806;2022-07-06T12:45:29;93790.59;;;21.81;44.23
16738;BME280;17906;47.684;10.806;2022-07-06T12:47:57;93785.97;;;21.63;45.78
16738;BME280;17906;47.684;10.806;2022-07-06T12:50:31;93791.50;;;21.77;46.21
16738;BME280;17906;47.684;10.806;2022-07-06T12:52:59;93784.41;;;21.57;44.49